Powder River, WY (82648)

6:16 PM MDT on October 21, 2014 (GMT -0600)
Natrona County International | Change Station
CLOSE
Current Station
Airport
Location: Casper,
Elevation: 5289 ft
Nearby Weather Stations

Elev 5289 ft 42.90 °N, 106.47 °W | Updated 23 minutes ago

Mostly Cloudy
Mostly Cloudy
65 °F
Feels Like 65 °F
N
14
Wind Variable Wind from SW

Today
High -- | Low -- °F
--% Chance of Precip.
Yesterday
High -- | Low -- °F
Precip. -- in
7:29 AM 6:15 PM
Waning Crescent, 4% visible
Pressure 29.71 in
Visibility 10.0 miles
Clouds Scattered Clouds 11000 ft
Dew Point 33 °F
Humidity 31%
Rainfall 0.00 in
Snow Depth Not available.
UV 0 out of 12
Pollen 3.50 out of 12
Air Quality Not available.
Flu Activity Sporadic
METAR KCPR 212353Z 23012KT 10SM SCT110 18/01 A2986 RMK AO2 SLP061 T01830006 10228 20183 53007

More Conditions Fewer Conditions

Pressure 29.71 in
Visibility 10.0 miles
Clouds Scattered Clouds 11000 ft
Dew Point 33 °F
Humidity 31%
Rainfall 0.00 in
Snow Depth Not available.
UV 0 out of 12
Pollen 3.50 out of 12
Air Quality Not available.
Flu Activity Sporadic
METAR KCPR 212353Z 23012KT 10SM SCT110 18/01 A2986 RMK AO2 SLP061 T01830006 10228 20183 53007

More Conditions Fewer Conditions

10-Day Weather Forecast

Almanac

Astronomy

Oct. 21, 2014 Rise Set
Actual Time 7:29 AM MDT 6:15 PM MDT
Civil Twilight 7:00 AM MDT 6:44 PM MDT
Nautical Twilight 6:26 AM MDT 7:17 PM MDT
Astronomical Twilight 5:54 AM MDT 7:50 PM MDT
Moon 5:12 AM MDT (10/21) 5:13 PM MDT (10/21)
Length of Visible Light 11h 44m
Length of Day
10h 46m
Tomorrow will be 2m 46s shorter.
Waning Crescent, 4% of the Moon is Illuminated
Today
Waning Crescent
Oct 23
New
Oct 30
First Quarter
Nov 6
Full
Nov 14
Last Quarter

Today's Extremes

State Highs State Lows

Community

WunderPhotos

Upload Photos

1,763,826 photos uploaded!

Nearby

Snow Depth

Station Depth Elevation
Reno Hill 0 in 8500 ft
Laprele Creek 0 in 8375 ft
Windy Peak 0 in 7900 ft
Big Sandy Opening 1 in 9080 ft
Sand Lake 4 in 10050 ft

Earthquake Activity

City Distance Mag. Time & Date
No recent earthquake activity has been reported nearby.
Minimum magnitude displayed is 2.5.

Coastal Water Temperatures

Place Temperature
No Stations Reporting

Nearby Weather Stations